sensor_id;sensor_type;location;lat;lon;timestamp;pressure;altitude;pressure_sealevel;temperature;humidity
51468;BME280;37545;45.302;-122.946;2024-01-25T00:11:46;100305.38;;;13.81;100.00
51468;BME280;37545;45.302;-122.946;2024-01-25T00:33:28;100340.44;;;13.36;100.00
51468;BME280;37545;45.302;-122.946;2024-01-25T00:36:00;100343.06;;;13.39;100.00
51468;BME280;37545;45.302;-122.946;2024-01-25T00:38:30;100348.25;;;13.36;100.00
51468;BME280;37545;45.302;-122.946;2024-01-25T00:40:59;100343.00;;;13.33;100.00
51468;BME280;37545;45.302;-122.946;2024-01-25T00:43:29;100342.13;;;13.32;100.00
51468;BME280;37545;45.302;-122.946;2024-01-25T00:46:06;100355.19;;;13.37;100.00
51468;BME280;37545;45.302;-122.946;2024-01-25T00:48:37;100349.97;;;13.35;100.00
51468;BME280;37545;45.302;-122.946;2024-01-25T00:51:12;100350.81;;;13.34;100.00
51468;BME280;37545;45.302;-122.946;2024-01-25T00:53:44;100363.84;;;13.36;100.00
51468;BME280;37545;45.302;-122.946;2024-01-25T01:34:58;100405.31;;;12.15;100.00
51468;BME280;37545;45.302;-122.946;2024-01-25T02:00:50;100425.72;;;11.53;100.00
51468;BME280;37545;45.302;-122.946;2024-01-25T02:39:35;100449.84;;;10.73;100.00
51468;BME280;37545;45.302;-122.946;2024-01-25T02:42:07;100453.28;;;10.74;100.00
51468;BME280;37545;45.302;-122.946;2024-01-25T02:44:39;100452.44;;;10.73;100.00
51468;BME280;37545;45.302;-122.946;2024-01-25T03:07:52;100451.88;;;10.50;100.00
51468;BME280;37545;45.302;-122.946;2024-01-25T03:10:23;100451.72;;;10.44;100.00
51468;BME280;37545;45.302;-122.946;2024-01-25T03:12:55;100450.78;;;10.40;100.00
51468;BME280;37545;45.302;-122.946;2024-01-25T03:15:26;100459.44;;;10.42;100.00
51468;BME280;37545;45.302;-122.946;2024-01-25T03:17:55;100453.31;;;10.39;100.00
51468;BME280;37545;45.302;-122.946;2024-01-25T03:20:24;100460.09;;;10.34;100.00
51468;BME280;37545;45.302;-122.946;2024-01-25T03:23:00;100466.94;;;10.32;100.00
51468;BME280;37545;45.302;-122.946;2024-01-25T03:25:29;100465.16;;;10.31;100.00
51468;BME280;37545;45.302;-122.946;2024-01-25T03:27:58;100480.66;;;10.31;100.00
51468;BME280;37545;45.302;-122.946;2024-01-25T03:30:27;100488.44;;;10.31;100.00
51468;BME280;37545;45.302;-122.946;2024-01-25T03:32:56;100481.53;;;10.30;100.00
51468;BME280;37545;45.302;-122.946;2024-01-25T03:35:27;100478.72;;;10.23;100.00
51468;BME280;37545;45.302;-122.946;2024-01-25T03:37:57;100476.88;;;10.18;100.00
51468;BME280;37545;45.302;-122.946;2024-01-25T03:40:28;100476.03;;;10.19;100.00
51468;BME280;37545;45.302;-122.946;2024-01-25T03:45:36;100475.88;;;10.13;100.00
51468;BME280;37545;45.302;-122.946;2024-01-25T03:48:05;100468.16;;;10.14;100.00
51468;BME280;37545;45.302;-122.946;2024-01-25T03:50:38;100471.66;;;10.16;100.00
51468;BME280;37545;45.302;-122.946;2024-01-25T03:53:18;100472.50;;;10.15;100.00
51468;BME280;37545;45.302;-122.946;2024-01-25T03:55:47;100483.75;;;10.17;100.00
51468;BME280;37545;45.302;-122.946;2024-01-25T03:58:30;100488.94;;;10.17;100.00
51468;BME280;37545;45.302;-122.946;2024-01-25T04:01:01;100518.31;;;10.19;100.00
51468;BME280;37545;45.302;-122.946;2024-01-25T04:03:29;100566.41;;;10.14;100.00
51468;BME280;37545;45.302;-122.946;2024-01-25T04:05:58;100574.91;;;10.10;100.00
51468;BME280;37545;45.302;-122.946;2024-01-25T04:08:36;100595.38;;;10.02;100.00
51468;BME280;37545;45.302;-122.946;2024-01-25T04:11:04;100588.34;;;9.98;100.00
51468;BME280;37545;45.302;-122.946;2024-01-25T04:13:36;100591.63;;;9.93;100.00
51468;BME280;37545;45.302;-122.946;2024-01-25T04:16:07;100600.22;;;9.92;100.00
51468;BME280;37545;45.302;-122.946;2024-01-25T04:18:36;100592.25;;;9.84;100.00
51468;BME280;37545;45.302;-122.946;2024-01-25T04:21:05;100598.13;;;9.78;100.00
51468;BME280;37545;45.302;-122.946;2024-01-25T04:23:35;100592.75;;;9.72;100.00
51468;BME280;37545;45.302;-122.946;2024-01-25T04:26:04;100593.53;;;9.70;100.00
51468;BME280;37545;45.302;-122.946;2024-01-25T04:28:39;100589.25;;;9.70;100.00
51468;BME280;37545;45.302;-122.946;2024-01-25T04:31:11;100613.06;;;9.60;100.00
51468;BME280;37545;45.302;-122.946;2024-01-25T04:33:39;100612.06;;;9.56;100.00
51468;BME280;37545;45.302;-122.946;2024-01-25T04:36:21;100611.00;;;9.50;100.00
51468;BME280;37545;45.302;-122.946;2024-01-25T04:39:02;100610.78;;;9.43;100.00
51468;BME280;37545;45.302;-122.946;2024-01-25T04:41:31;100600.94;;;9.32;100.00
51468;BME280;37545;45.302;-122.946;2024-01-25T04:43:59;100598.28;;;9.29;100.00
51468;BME280;37545;45.302;-122.946;2024-01-25T04:46:30;100591.19;;;9.23;100.00
51468;BME280;37545;45.302;-122.946;2024-01-25T04:49:03;100586.78;;;9.19;100.00
51468;BME280;37545;45.302;-122.946;2024-01-25T04:51:40;100582.41;;;9.16;100.00
51468;BME280;37545;45.302;-122.946;2024-01-25T05:51:20;100628.47;;;8.54;100.00
51468;BME280;37545;45.302;-122.946;2024-01-25T06:56:22;100680.84;;;8.31;100.00
51468;BME280;37545;45.302;-122.946;2024-01-25T06:58:51;100675.59;;;8.28;100.00
51468;BME280;37545;45.302;-122.946;2024-01-25T07:01:30;100671.13;;;8.24;100.00
51468;BME280;37545;45.302;-122.946;2024-01-25T07:03:59;100683.22;;;8.25;100.00
51468;BME280;37545;45.302;-122.946;2024-01-25T07:06:28;100692.59;;;8.23;100.00
51468;BME280;37545;45.302;-122.946;2024-01-25T07:08:57;100691.81;;;8.25;100.00
51468;BME280;37545;45.302;-122.946;2024-01-25T07:11:30;100704.91;;;8.31;100.00
51468;BME280;37545;45.302;-122.946;2024-01-25T07:13:59;100702.41;;;8.33;100.00
51468;BME280;37545;45.302;-122.946;2024-01-25T07:16:27;100707.00;;;8.40;100.00
51468;BME280;37545;45.302;-122.946;2024-01-25T07:18:57;100707.00;;;8.40;100.00
51468;BME280;37545;45.302;-122.946;2024-01-25T07:21:28;100714.91;;;8.45;100.00
51468;BME280;37545;45.302;-122.946;2024-01-25T07:24:01;100709.72;;;8.43;100.00
51468;BME280;37545;45.302;-122.946;2024-01-25T07:26:32;100719.44;;;8.50;100.00
51468;BME280;37545;45.302;-122.946;2024-01-25T07:29:05;100723.84;;;8.53;100.00
51468;BME280;37545;45.302;-122.946;2024-01-25T07:31:39;100729.94;;;8.55;100.00
51468;BME280;37545;45.302;-122.946;2024-01-25T07:34:07;100735.13;;;8.56;100.00
51468;BME280;37545;45.302;-122.946;2024-01-25T07:36:36;100736.78;;;8.54;100.00
51468;BME280;37545;45.302;-122.946;2024-01-25T07:39:05;100740.28;;;8.56;100.00
51468;BME280;37545;45.302;-122.946;2024-01-25T07:41:39;100743.94;;;8.62;100.00
51468;BME280;37545;45.302;-122.946;2024-01-25T07:44:08;100750.03;;;8.64;100.00
51468;BME280;37545;45.302;-122.946;2024-01-25T07:46:37;100751.06;;;8.69;100.00
51468;BME280;37545;45.302;-122.946;2024-01-25T07:49:06;100752.09;;;8.74;100.00
51468;BME280;37545;45.302;-122.946;2024-01-25T07:51:35;100751.41;;;8.78;100.00
51468;BME280;37545;45.302;-122.946;2024-01-25T07:56:46;100750.56;;;8.79;100.00
51468;BME280;37545;45.302;-122.946;2024-01-25T08:04:25;100736.69;;;8.75;100.00
51468;BME280;37545;45.302;-122.946;2024-01-25T08:07:03;100744.44;;;8.75;100.00
51468;BME280;37545;45.302;-122.946;2024-01-25T08:09:32;100739.22;;;8.74;100.00
51468;BME280;37545;45.302;-122.946;2024-01-25T08:12:03;100733.88;;;8.69;100.00
51468;BME280;37545;45.302;-122.946;2024-01-25T08:14:32;100722.53;;;8.64;100.00
51468;BME280;37545;45.302;-122.946;2024-01-25T08:17:13;100721.50;;;8.59;100.00
51468;BME280;37545;45.302;-122.946;2024-01-25T08:19:42;100723.94;;;8.56;100.00
51468;BME280;37545;45.302;-122.946;2024-01-25T08:22:11;100729.16;;;8.57;100.00
51468;BME280;37545;45.302;-122.946;2024-01-25T08:24:48;100725.72;;;8.57;100.00
51468;BME280;37545;45.302;-122.946;2024-01-25T08:27:21;100724.94;;;8.59;100.00
51468;BME280;37545;45.302;-122.946;2024-01-25T08:29:50;100724.94;;;8.59;100.00
51468;BME280;37545;45.302;-122.946;2024-01-25T08:32:28;100728.56;;;8.65;100.00
51468;BME280;37545;45.302;-122.946;2024-01-25T08:34:57;100729.44;;;8.65;100.00
51468;BME280;37545;45.302;-122.946;2024-01-25T08:37:26;100735.47;;;8.66;100.00
51468;BME280;37545;45.302;-122.946;2024-01-25T08:39:55;100732.16;;;8.68;100.00
51468;BME280;37545;45.302;-122.946;2024-01-25T08:42:28;100727.78;;;8.67;100.00
51468;BME280;37545;45.302;-122.946;2024-01-25T08:44:57;100721.75;;;8.67;100.00
51468;BME280;37545;45.302;-122.946;2024-01-25T08:47:25;100728.78;;;8.71;100.00
51468;BME280;37545;45.302;-122.946;2024-01-25T08:49:54;100735.78;;;8.75;100.00
51468;BME280;37545;45.302;-122.946;2024-01-25T08:52:31;100742.63;;;8.73;100.00
51468;BME280;37545;45.302;-122.946;2024-01-25T08:54:59;100742.63;;;8.73;100.00
51468;BME280;37545;45.302;-122.946;2024-01-25T08:57:30;100740.75;;;8.69;100.00
51468;BME280;37545;45.302;-122.946;2024-01-25T09:00:02;100757.97;;;8.70;100.00
51468;BME280;37545;45.302;-122.946;2024-01-25T09:02:37;100758.75;;;8.67;100.00
51468;BME280;37545;45.302;-122.946;2024-01-25T09:05:06;100756.06;;;8.64;100.00
51468;BME280;37545;45.302;-122.946;2024-01-25T09:07:38;100761.25;;;8.66;100.00
51468;BME280;37545;45.302;-122.946;2024-01-25T09:10:17;100761.22;;;8.64;100.00
51468;BME280;37545;45.302;-122.946;2024-01-25T09:12:48;100763.78;;;8.64;100.00
51468;BME280;37545;45.302;-122.946;2024-01-25T09:15:17;100762.97;;;8.65;100.00
51468;BME280;37545;45.302;-122.946;2024-01-25T09:17:48;100769.06;;;8.67;100.00
51468;BME280;37545;45.302;-122.946;2024-01-25T09:20:17;100765.53;;;8.65;100.00
51468;BME280;37545;45.302;-122.946;2024-01-25T09:22:45;100766.53;;;8.69;100.00
51468;BME280;37545;45.302;-122.946;2024-01-25T09:25:14;100773.44;;;8.70;100.00
51468;BME280;37545;45.302;-122.946;2024-01-25T09:27:43;100776.09;;;8.71;100.00
51468;BME280;37545;45.302;-122.946;2024-01-25T09:30:17;100775.31;;;8.74;100.00
51468;BME280;37545;45.302;-122.946;2024-01-25T09:32:48;100781.25;;;8.71;100.00
51468;BME280;37545;45.302;-122.946;2024-01-25T09:35:17;100787.38;;;8.75;100.00
51468;BME280;37545;45.302;-122.946;2024-01-25T09:37:46;100789.16;;;8.76;100.00
51468;BME280;37545;45.302;-122.946;2024-01-25T09:40:24;100789.97;;;8.75;100.00
51468;BME280;37545;45.302;-122.946;2024-01-25T09:42:54;100788.28;;;8.75;100.00
51468;BME280;37545;45.302;-122.946;2024-01-25T09:45:25;100802.94;;;8.76;100.00
51468;BME280;37545;45.302;-122.946;2024-01-25T09:47:59;100799.47;;;8.76;100.00
51468;BME280;37545;45.302;-122.946;2024-01-25T09:50:31;100801.13;;;8.74;100.00
51468;BME280;37545;45.302;-122.946;2024-01-25T09:53:00;100811.44;;;8.74;100.00
51468;BME280;37545;45.302;-122.946;2024-01-25T09:55:40;100809.69;;;8.73;100.00
51468;BME280;37545;45.302;-122.946;2024-01-25T09:58:11;100818.13;;;8.69;100.00
51468;BME280;37545;45.302;-122.946;2024-01-25T10:00:41;100820.56;;;8.66;100.00
51468;BME280;37545;45.302;-122.946;2024-01-25T10:03:10;100814.25;;;8.57;100.00
51468;BME280;37545;45.302;-122.946;2024-01-25T10:05:47;100811.63;;;8.56;100.00
51468;BME280;37545;45.302;-122.946;2024-01-25T10:08:15;100819.44;;;8.57;100.00
51468;BME280;37545;45.302;-122.946;2024-01-25T10:10:45;100814.25;;;8.57;100.00
51468;BME280;37545;45.302;-122.946;2024-01-25T10:13:21;100819.59;;;8.62;100.00
51468;BME280;37545;45.302;-122.946;2024-01-25T10:26:22;100835.94;;;8.63;100.00
51468;BME280;37545;45.302;-122.946;2024-01-25T10:28:54;100839.47;;;8.65;100.00
51468;BME280;37545;45.302;-122.946;2024-01-25T10:31:24;100845.75;;;8.71;100.00
51468;BME280;37545;45.302;-122.946;2024-01-25T10:33:56;100844.09;;;8.73;100.00
51468;BME280;37545;45.302;-122.946;2024-01-25T10:36:28;100857.13;;;8.76;100.00
51468;BME280;37545;45.302;-122.946;2024-01-25T10:38:57;100843.25;;;8.73;100.00
51468;BME280;37545;45.302;-122.946;2024-01-25T10:41:31;100850.84;;;8.70;100.00
51468;BME280;37545;45.302;-122.946;2024-01-25T10:44:04;100857.88;;;8.74;100.00
51468;BME280;37545;45.302;-122.946;2024-01-25T10:46:34;100863.91;;;8.74;100.00
51468;BME280;37545;45.302;-122.946;2024-01-25T10:49:03;100860.53;;;8.75;100.00
51468;BME280;37545;45.302;-122.946;2024-01-25T10:51:33;100856.25;;;8.76;100.00
51468;BME280;37545;45.302;-122.946;2024-01-25T10:54:16;100861.66;;;8.82;100.00
51468;BME280;37545;45.302;-122.946;2024-01-25T10:56:48;100860.13;;;8.87;100.00
51468;BME280;37545;45.302;-122.946;2024-01-25T10:59:17;100863.75;;;8.92;100.00
51468;BME280;37545;45.302;-122.946;2024-01-25T11:01:55;100870.78;;;8.96;100.00
51468;BME280;37545;45.302;-122.946;2024-01-25T11:04:24;100871.03;;;9.02;100.00
51468;BME280;37545;45.302;-122.946;2024-01-25T11:06:53;100865.13;;;9.07;100.00
51468;BME280;37545;45.302;-122.946;2024-01-25T11:09:27;100867.00;;;9.11;100.00
51468;BME280;37545;45.302;-122.946;2024-01-25T11:11:59;100865.38;;;9.13;100.00
51468;BME280;37545;45.302;-122.946;2024-01-25T11:14:29;100878.38;;;9.16;100.00
51468;BME280;37545;45.302;-122.946;2024-01-25T11:32:30;100888.28;;;9.28;100.00
51468;BME280;37545;45.302;-122.946;2024-01-25T11:34:59;100882.19;;;9.26;100.00
51468;BME280;37545;45.302;-122.946;2024-01-25T11:37:28;100884.88;;;9.29;100.00
51468;BME280;37545;45.302;-122.946;2024-01-25T11:39:57;100885.69;;;9.28;100.00
51468;BME280;37545;45.302;-122.946;2024-01-25T11:42:39;100882.13;;;9.24;100.00
51468;BME280;37545;45.302;-122.946;2024-01-25T11:45:09;100883.00;;;9.25;100.00
51468;BME280;37545;45.302;-122.946;2024-01-25T11:47:44;100868.88;;;9.15;100.00
51468;BME280;37545;45.302;-122.946;2024-01-25T11:50:15;100877.22;;;9.08;100.00
51468;BME280;37545;45.302;-122.946;2024-01-25T11:52:44;100883.34;;;9.10;100.00
51468;BME280;37545;45.302;-122.946;2024-01-25T11:55:13;100894.53;;;9.10;100.00
51468;BME280;37545;45.302;-122.946;2024-01-25T11:57:42;100883.03;;;9.02;100.00
51468;BME280;37545;45.302;-122.946;2024-01-25T12:00:23;100896.84;;;9.02;100.00
51468;BME280;37545;45.302;-122.946;2024-01-25T12:02:54;100890.72;;;9.00;100.00
51468;BME280;37545;45.302;-122.946;2024-01-25T12:05:23;100887.38;;;9.03;100.00
51468;BME280;37545;45.302;-122.946;2024-01-25T12:07:58;100897.72;;;9.03;100.00
51468;BME280;37545;45.302;-122.946;2024-01-25T12:10:27;100901.22;;;9.05;100.00
51468;BME280;37545;45.302;-122.946;2024-01-25T12:12:56;100908.91;;;9.04;100.00
51468;BME280;37545;45.302;-122.946;2024-01-25T12:15:42;100902.00;;;9.02;100.00
51468;BME280;37545;45.302;-122.946;2024-01-25T12:18:15;100910.78;;;9.08;100.00
51468;BME280;37545;45.302;-122.946;2024-01-25T12:28:36;100923.88;;;9.12;100.00
51468;BME280;37545;45.302;-122.946;2024-01-25T12:38:59;100922.66;;;9.02;100.00
51468;BME280;37545;45.302;-122.946;2024-01-25T12:41:41;100939.97;;;9.07;100.00
51468;BME280;37545;45.302;-122.946;2024-01-25T12:44:10;100940.81;;;9.06;100.00
51468;BME280;37545;45.302;-122.946;2024-01-25T12:46:39;100944.19;;;9.05;100.00
51468;BME280;37545;45.302;-122.946;2024-01-25T12:49:13;100944.09;;;9.01;100.00
51468;BME280;37545;45.302;-122.946;2024-01-25T12:51:42;100954.41;;;9.01;100.00
51468;BME280;37545;45.302;-122.946;2024-01-25T12:54:12;100955.13;;;8.97;100.00
51468;BME280;37545;45.302;-122.946;2024-01-25T13:07:05;100977.66;;;9.01;100.00
51468;BME280;37545;45.302;-122.946;2024-01-25T13:09:36;100985.50;;;9.05;100.00
51468;BME280;37545;45.302;-122.946;2024-01-25T13:12:15;100976.00;;;9.04;100.00
51468;BME280;37545;45.302;-122.946;2024-01-25T13:19:58;100969.53;;;8.92;100.00
51468;BME280;37545;45.302;-122.946;2024-01-25T13:22:26;100983.31;;;8.93;100.00
51468;BME280;37545;45.302;-122.946;2024-01-25T13:24:58;100982.44;;;8.92;100.00
51468;BME280;37545;45.302;-122.946;2024-01-25T13:27:29;100978.91;;;8.90;100.00
51468;BME280;37545;45.302;-122.946;2024-01-25T13:30:04;100978.91;;;8.90;100.00
51468;BME280;37545;45.302;-122.946;2024-01-25T13:32:33;100977.19;;;8.89;100.00
51468;BME280;37545;45.302;-122.946;2024-01-25T13:35:08;100983.31;;;8.93;100.00
51468;BME280;37545;45.302;-122.946;2024-01-25T13:37:41;100984.03;;;8.89;100.00
51468;BME280;37545;45.302;-122.946;2024-01-25T13:40:13;100990.88;;;8.88;100.00
51468;BME280;37545;45.302;-122.946;2024-01-25T13:42:42;100988.31;;;8.88;100.00
51468;BME280;37545;45.302;-122.946;2024-01-25T13:45:11;101000.44;;;8.91;100.00
51468;BME280;37545;45.302;-122.946;2024-01-25T13:47:46;100998.03;;;8.95;100.00
51468;BME280;37545;45.302;-122.946;2024-01-25T13:50:15;101007.50;;;8.95;100.00
51468;BME280;37545;45.302;-122.946;2024-01-25T13:52:43;101001.47;;;8.94;100.00
51468;BME280;37545;45.302;-122.946;2024-01-25T13:55:22;101014.44;;;8.96;100.00
51468;BME280;37545;45.302;-122.946;2024-01-25T13:57:50;101017.06;;;8.97;100.00
51468;BME280;37545;45.302;-122.946;2024-01-25T14:00:19;101023.06;;;8.96;100.00
51468;BME280;37545;45.302;-122.946;2024-01-25T14:02:49;101023.13;;;8.98;100.00
51468;BME280;37545;45.302;-122.946;2024-01-25T14:05:20;101033.50;;;8.99;100.00
51468;BME280;37545;45.302;-122.946;2024-01-25T14:07:49;101036.94;;;9.00;100.00
51468;BME280;37545;45.302;-122.946;2024-01-25T14:10:20;101036.91;;;8.98;100.00
51468;BME280;37545;45.302;-122.946;2024-01-25T14:15:26;101038.47;;;8.95;100.00
51468;BME280;37545;45.302;-122.946;2024-01-25T14:43:48;101054.34;;;8.83;100.00
51468;BME280;37545;45.302;-122.946;2024-01-25T14:46:20;101051.88;;;8.86;100.00
51468;BME280;37545;45.302;-122.946;2024-01-25T15:01:49;101060.69;;;8.91;100.00
51468;BME280;37545;45.302;-122.946;2024-01-25T15:04:20;101073.97;;;9.00;100.00
51468;BME280;37545;45.302;-122.946;2024-01-25T15:06:55;101083.59;;;9.05;100.00
51468;BME280;37545;45.302;-122.946;2024-01-25T15:14:35;101084.03;;;9.15;100.00
51468;BME280;37545;45.302;-122.946;2024-01-25T15:19:45;101084.78;;;9.13;100.00
51468;BME280;37545;45.302;-122.946;2024-01-25T15:22:14;101084.72;;;9.11;100.00
51468;BME280;37545;45.302;-122.946;2024-01-25T15:24:42;101089.09;;;9.12;100.00
51468;BME280;37545;45.302;-122.946;2024-01-25T15:27:12;101093.38;;;9.12;100.00
51468;BME280;37545;45.302;-122.946;2024-01-25T15:29:49;101091.69;;;9.14;100.00
51468;BME280;37545;45.302;-122.946;2024-01-25T15:32:18;101107.19;;;9.14;100.00
51468;BME280;37545;45.302;-122.946;2024-01-25T15:34:48;101104.63;;;9.14;100.00
51468;BME280;37545;45.302;-122.946;2024-01-25T15:37:17;101102.94;;;9.14;100.00
51468;BME280;37545;45.302;-122.946;2024-01-25T15:40:00;101114.13;;;9.15;100.00
51468;BME280;37545;45.302;-122.946;2024-01-25T15:42:34;101114.41;;;9.21;100.00
51468;BME280;37545;45.302;-122.946;2024-01-25T15:45:12;101111.81;;;9.21;100.00
51468;BME280;37545;45.302;-122.946;2024-01-25T15:47:41;101119.69;;;9.24;100.00
51468;BME280;37545;45.302;-122.946;2024-01-25T15:50:12;101130.94;;;9.26;100.00
51468;BME280;37545;45.302;-122.946;2024-01-25T15:52:41;101125.81;;;9.28;100.00
51468;BME280;37545;45.302;-122.946;2024-01-25T15:55:17;101126.75;;;9.28;100.00
51468;BME280;37545;45.302;-122.946;2024-01-25T15:57:46;101129.34;;;9.30;100.00
51468;BME280;37545;45.302;-122.946;2024-01-25T16:00:16;101150.16;;;9.33;100.00
51468;BME280;37545;45.302;-122.946;2024-01-25T16:02:52;101142.59;;;9.37;100.00
51468;BME280;37545;45.302;-122.946;2024-01-25T16:05:24;101146.16;;;9.41;100.00
51468;BME280;37545;45.302;-122.946;2024-01-25T16:07:53;101141.72;;;9.37;100.00
51468;BME280;37545;45.302;-122.946;2024-01-25T16:10:22;101152.16;;;9.40;100.00
51468;BME280;37545;45.302;-122.946;2024-01-25T16:12:54;101150.53;;;9.42;100.00
51468;BME280;37545;45.302;-122.946;2024-01-25T16:15:23;101165.38;;;9.48;100.00
51468;BME280;37545;45.302;-122.946;2024-01-25T16:17:54;101162.00;;;9.49;100.00
51468;BME280;37545;45.302;-122.946;2024-01-25T16:20:27;101165.63;;;9.54;100.00
51468;BME280;37545;45.302;-122.946;2024-01-25T16:23:05;101171.88;;;9.59;100.00
51468;BME280;37545;45.302;-122.946;2024-01-25T16:25:34;101177.16;;;9.62;100.00
51468;BME280;37545;45.302;-122.946;2024-01-25T16:28:04;101168.47;;;9.60;100.00
51468;BME280;37545;45.302;-122.946;2024-01-25T16:30:41;101177.28;;;9.65;100.00
51468;BME280;37545;45.302;-122.946;2024-01-25T16:33:10;101175.50;;;9.64;100.00
51468;BME280;37545;45.302;-122.946;2024-01-25T16:35:44;101177.31;;;9.67;100.00
51468;BME280;37545;45.302;-122.946;2024-01-25T16:38:24;101177.28;;;9.65;100.00
51468;BME280;37545;45.302;-122.946;2024-01-25T16:40:53;101186.03;;;9.69;100.00
51468;BME280;37545;45.302;-122.946;2024-01-25T16:43:22;101185.28;;;9.71;100.00
51468;BME280;37545;45.302;-122.946;2024-01-25T16:45:59;101186.94;;;9.69;100.00
51468;BME280;37545;45.302;-122.946;2024-01-25T16:48:28;101183.25;;;9.64;100.00
51468;BME280;37545;45.302;-122.946;2024-01-25T16:51:02;101193.75;;;9.67;100.00
51468;BME280;37545;45.302;-122.946;2024-01-25T16:53:33;101184.22;;;9.66;100.00
51468;BME280;37545;45.302;-122.946;2024-01-25T16:56:10;101193.75;;;9.67;100.00
51468;BME280;37545;45.302;-122.946;2024-01-25T16:58:41;101201.69;;;9.72;100.00
51468;BME280;37545;45.302;-122.946;2024-01-25T17:01:13;101205.06;;;9.71;100.00
51468;BME280;37545;45.302;-122.946;2024-01-25T17:03:46;101208.56;;;9.71;100.00
51468;BME280;37545;45.302;-122.946;2024-01-25T17:06:17;101225.81;;;9.72;100.00
51468;BME280;37545;45.302;-122.946;2024-01-25T17:08:45;101217.97;;;9.71;100.00
51468;BME280;37545;45.302;-122.946;2024-01-25T17:11:16;101219.81;;;9.73;100.00
51468;BME280;37545;45.302;-122.946;2024-01-25T17:13:56;101224.97;;;9.73;100.00
51468;BME280;37545;45.302;-122.946;2024-01-25T17:16:24;101226.75;;;9.74;100.00
51468;BME280;37545;45.302;-122.946;2024-01-25T17:18:56;101228.56;;;9.77;100.00
51468;BME280;37545;45.302;-122.946;2024-01-25T17:21:30;101239.09;;;9.81;100.00
51468;BME280;37545;45.302;-122.946;2024-01-25T17:23:59;101241.00;;;9.85;100.00
51468;BME280;37545;45.302;-122.946;2024-01-25T17:26:28;101244.56;;;9.89;100.00
51468;BME280;37545;45.302;-122.946;2024-01-25T17:29:00;101235.94;;;9.89;100.00
51468;BME280;37545;45.302;-122.946;2024-01-25T17:31:33;101250.81;;;9.94;100.00
51468;BME280;37545;45.302;-122.946;2024-01-25T17:34:02;101241.22;;;9.92;100.00
51468;BME280;37545;45.302;-122.946;2024-01-25T17:36:32;101257.94;;;10.00;100.00
51468;BME280;37545;45.302;-122.946;2024-01-25T17:39:10;101264.22;;;10.06;100.00
51468;BME280;37545;45.302;-122.946;2024-01-25T17:41:38;101271.41;;;10.14;100.00
51468;BME280;37545;45.302;-122.946;2024-01-25T17:44:08;101270.44;;;10.12;100.00
51468;BME280;37545;45.302;-122.946;2024-01-25T17:46:38;101289.75;;;10.20;100.00
51468;BME280;37545;45.302;-122.946;2024-01-25T17:49:15;101284.59;;;10.20;100.00
51468;BME280;37545;45.302;-122.946;2024-01-25T17:51:46;101288.28;;;10.26;100.00
51468;BME280;37545;45.302;-122.946;2024-01-25T17:54:15;101302.25;;;10.30;100.00
51468;BME280;37545;45.302;-122.946;2024-01-25T17:56:49;101296.19;;;10.30;100.00
51468;BME280;37545;45.302;-122.946;2024-01-25T17:59:18;101312.91;;;10.38;100.00
51468;BME280;37545;45.302;-122.946;2024-01-25T18:01:47;101313.72;;;10.37;100.00
51468;BME280;37545;45.302;-122.946;2024-01-25T18:04:16;101313.78;;;10.38;100.00
51468;BME280;37545;45.302;-122.946;2024-01-25T18:06:50;101310.25;;;10.36;100.00
51468;BME280;37545;45.302;-122.946;2024-01-25T18:09:19;101327.78;;;10.43;100.00
51468;BME280;37545;45.302;-122.946;2024-01-25T18:11:50;101324.06;;;10.37;100.00
51468;BME280;37545;45.302;-122.946;2024-01-25T18:14:19;101335.44;;;10.40;100.00
51468;BME280;37545;45.302;-122.946;2024-01-25T18:17:01;101342.41;;;10.43;100.00
51468;BME280;37545;45.302;-122.946;2024-01-25T18:19:30;101341.72;;;10.47;100.00
51468;BME280;37545;45.302;-122.946;2024-01-25T18:22:03;101345.13;;;10.46;100.00
51468;BME280;37545;45.302;-122.946;2024-01-25T18:24:44;101352.88;;;10.46;100.00
51468;BME280;37545;45.302;-122.946;2024-01-25T18:27:12;101357.09;;;10.44;100.00
51468;BME280;37545;45.302;-122.946;2024-01-25T18:29:41;101371.00;;;10.46;100.00
51468;BME280;37545;45.302;-122.946;2024-01-25T18:32:13;101365.72;;;10.43;100.00
51468;BME280;37545;45.302;-122.946;2024-01-25T18:34:43;101373.66;;;10.47;100.00
51468;BME280;37545;45.302;-122.946;2024-01-25T18:37:14;101369.34;;;10.48;100.00
51468;BME280;37545;45.302;-122.946;2024-01-25T18:39:43;101374.78;;;10.54;100.00
51468;BME280;37545;45.302;-122.946;2024-01-25T18:42:20;101374.88;;;10.57;100.00
51468;BME280;37545;45.302;-122.946;2024-01-25T18:44:49;101382.41;;;10.51;100.00
51468;BME280;37545;45.302;-122.946;2024-01-25T18:47:18;101371.31;;;10.54;100.00
51468;BME280;37545;45.302;-122.946;2024-01-25T18:49:58;101373.94;;;10.55;100.00
51468;BME280;37545;45.302;-122.946;2024-01-25T18:52:29;101368.59;;;10.51;100.00
51468;BME280;37545;45.302;-122.946;2024-01-25T18:54:59;101374.78;;;10.54;100.00
51468;BME280;37545;45.302;-122.946;2024-01-25T18:57:37;101379.31;;;10.60;100.00
51468;BME280;37545;45.302;-122.946;2024-01-25T19:00:07;101371.50;;;10.58;100.00
51468;BME280;37545;45.302;-122.946;2024-01-25T19:02:36;101382.94;;;10.65;100.00
51468;BME280;37545;45.302;-122.946;2024-01-25T19:05:06;101372.91;;;10.73;100.00